28 January 2015 Space
GT Aviation logo and link to the homepage
GT Aviation logo and link to the homepage Space
Space

GT Aviation UK - Airfield Weather Information

 

Weather information for EGHH


16 minutes ago, at 17:50 UTC, the wind was blowing at a speed of 7.2 meters per second (16.1 miles per hour) from West/Northwest in EGHH. The temperature was 5 degrees Celsius (41 degrees Fahrenheit), and the pressure was 1,006 hPa (29.71 inHg). The relative humidity was 70.0%. There were a few clouds at a height of 914 meter (3000 feet) and scattered clouds at a height of 1372 meter (4500 feet). The visibility was >11.3 kilometers (>7 miles).

The METAR this information has been retrieved from is: EGHH 281750Z 29014KT 9999 FEW030 SCT045 05/00 Q1006 RESHGR

Search again?
Enter ICAO code: and show the report in
Don't know the ICAO code of the airport you want weather for?

To see a graphical view of the weather for EGHH, click here to visit SkyLinkWeather

 



GT Aviation UK
PO Box 15, WEYMOUTH DT4 8DS, UK
Email jane@gtaviation.co.uk Web www.gtaviation.co.uk

Use of this website constitutes acceptance of our User Agreement

TYNT INSIGHT technology is in use on this website to monitor text and pictures being copied from it. A record is kept only of the content copied.